Esler Regional Airport
KESF : now visible

Aeroporto :











RITROVATECI SU...

 
LOGIN :

Iscrizione | Disclaimer

   EN    FR    IT 

 









Sommario :    VFR   VFR Marginale   IFR   IFR Intensivo   IFR Molto Intensivo
Visibilità : 
Base nubi : 
>= 8 km
>= 3000ft
5 / 8 km
1000 / 3000 ft
1500m / 5 km
500 / 1000 ft
800 / 1500m
200 / 500 ft
< 800m
< 200 ft
Simboli :   Temporali  Nebbia  Neve Forte  Precipitazioni Forti  Vento > 20 kt






- Altitudine del aeroporto : 112 ft


KESF - Esler Regional

ULTIMO METAR :
  • 280553Z AUTO 00000KT 10SM CLR 00/M02 A3033 RMK AO2 SLP270 T00001017 10094 20000 401281028 51002 $

METARs OBSOLETI :
  • 280453Z AUTO 00000KT 10SM CLR 01/M02 A3033 RMK AO2 SLP269 T00061017 $
  • 280353Z AUTO 00000KT 10SM CLR 01/M02 A3033 RMK AO2 SLP270 T00111017 $

TAF N/A



MetMap, La meteo Aeronautica in un colpo d'occhio ! - Copyright ORBIFLY Dicembre 2007 - Disclaimer

ORBIFLY MET'MAP TEAM :

Programmazione e sviluppo : Alexandra Zaïnal
Concezione : Baudouin d'Aumeries
Aiuto per la programmazione : Marc-Olivier Méhu
Supporto tecnico e logistico : Manuel Goepfert
Aiuto per la traduzione : Arnaldo La Scala

Contatto : metmap@orbifly.com




FONTI E CREDITI :

   NOAA       Earth
Advisory